Time;durP1;ratioP1;P1;durP2;ratioP2;P2;SDS_P1;SDS_P2;PMS_P1;PMS_P2;Temp;Humidity;BMP_temperature;BMP_pressure;BME280_temperature;BME280_humidity;BME280_pressure;Samples;Min_cycle;Max_cycle;Signal;HPM_P1;HPM_P2
2021/09/16 00:01:19;;;;;;;57.93;2.40;;;17.00;56.00;;;;;;5031592;28;20543;-70
2021/09/16 00:03:46;;;;;;;58.23;2.60;;;17.00;57.80;;;;;;5031584;28;20558;-69
2021/09/16 00:06:13;;;;;;;58.20;2.60;;;17.00;58.40;;;;;;5031058;28;20965;-69
2021/09/16 00:08:40;;;;;;;57.87;2.53;;;17.00;60.10;;;;;;5031465;28;20484;-70
2021/09/16 00:11:07;;;;;;;58.07;2.37;;;17.10;61.30;;;;;;5031400;28;20541;-70
2021/09/16 00:13:34;;;;;;;57.87;2.50;;;17.10;61.50;;;;;;5031637;28;20452;-70
2021/09/16 00:16:01;;;;;;;58.40;2.60;;;17.10;62.40;;;;;;5031254;28;20451;-71
2021/09/16 00:18:30;;;;;;;58.90;3.17;;;17.20;62.50;;;;;;5031278;28;20576;-70
2021/09/16 00:20:57;;;;;;;58.17;2.60;;;17.20;62.40;;;;;;5031479;28;20460;-70
2021/09/16 00:23:24;;;;;;;59.20;4.60;;;17.20;62.20;;;;;;5031355;28;20540;-70
2021/09/16 00:25:51;;;;;;;57.87;2.47;;;17.30;61.90;;;;;;5031220;28;20868;-70
2021/09/16 00:28:18;;;;;;;58.10;2.70;;;17.30;61.40;;;;;;5031480;28;20472;-70
2021/09/16 00:30:45;;;;;;;57.97;2.47;;;17.40;60.10;;;;;;5031317;28;21027;-70
2021/09/16 00:33:12;;;;;;;57.97;2.40;;;17.30;58.20;;;;;;5031275;28;20490;-70
2021/09/16 00:35:40;;;;;;;58.07;2.60;;;17.40;58.00;;;;;;5031002;28;20466;-70
2021/09/16 00:38:07;;;;;;;58.07;2.70;;;17.40;57.80;;;;;;5030956;28;20488;-70
2021/09/16 00:40:34;;;;;;;58.03;2.33;;;17.40;58.00;;;;;;5031254;28;20460;-70
2021/09/16 00:43:01;;;;;;;58.17;2.60;;;17.40;57.90;;;;;;5031203;28;20540;-71
2021/09/16 00:45:28;;;;;;;57.67;2.50;;;17.40;57.70;;;;;;5031037;28;20486;-70
2021/09/16 00:47:55;;;;;;;58.07;2.77;;;17.40;56.90;;;;;;5031132;28;20460;-70
2021/09/16 00:50:24;;;;;;;58.20;3.00;;;17.40;55.20;;;;;;5034357;28;20534;-70
2021/09/16 00:52:54;;;;;;;58.07;2.40;;;17.40;53.60;;;;;;5034665;28;20828;-71
2021/09/16 00:55:23;;;;;;;58.10;2.40;;;17.40;52.60;;;;;;5034753;28;20460;-71
2021/09/16 00:57:53;;;;;;;57.97;2.40;;;17.50;52.40;;;;;;5034610;28;20487;-70
2021/09/16 01:00:20;;;;;;;57.97;2.40;;;17.50;51.90;;;;;;5035064;28;20544;-70
2021/09/16 01:02:47;;;;;;;57.87;2.43;;;17.50;51.40;;;;;;5034574;28;20449;-70
2021/09/16 01:05:15;;;;;;;57.97;2.40;;;17.50;50.10;;;;;;5034353;28;20542;-70
2021/09/16 01:07:42;;;;;;;58.30;2.30;;;17.50;49.50;;;;;;5034367;28;20547;-70
2021/09/16 01:10:12;;;;;;;58.13;2.50;;;17.50;50.00;;;;;;5034386;28;20824;-70
2021/09/16 01:12:40;;;;;;;58.20;2.53;;;17.50;49.10;;;;;;5032536;28;20455;-70
2021/09/16 01:15:08;;;;;;;58.07;2.40;;;17.50;48.90;;;;;;5034553;28;20452;-70
2021/09/16 01:17:36;;;;;;;58.03;2.70;;;17.50;48.30;;;;;;5034138;28;20781;-70
2021/09/16 01:20:04;;;;;;;57.93;2.50;;;17.50;49.00;;;;;;5034329;28;20449;-70
2021/09/16 01:22:34;;;;;;;57.83;2.53;;;17.50;49.20;;;;;;5034371;28;20462;-70
2021/09/16 01:25:00;;;;;;;58.07;2.80;;;17.50;49.30;;;;;;5034175;28;20544;-70
2021/09/16 01:27:28;;;;;;;57.97;2.50;;;17.50;48.40;;;;;;5033676;28;20478;-70
2021/09/16 01:29:54;;;;;;;58.17;2.47;;;17.50;47.20;;;;;;5033975;28;20470;-70
2021/09/16 01:32:21;;;;;;;57.90;2.40;;;17.60;45.70;;;;;;5034258;28;20444;-70
2021/09/16 01:34:48;;;;;;;58.10;2.40;;;17.60;45.40;;;;;;5034109;28;20889;-70
2021/09/16 01:37:15;;;;;;;57.77;2.50;;;17.60;44.90;;;;;;5033583;28;20472;-71
2021/09/16 01:39:43;;;;;;;58.03;2.50;;;17.60;44.80;;;;;;5033758;28;20574;-71
2021/09/16 01:42:10;;;;;;;58.27;2.80;;;17.70;44.10;;;;;;5033937;28;20866;-70
2021/09/16 01:44:37;;;;;;;57.90;2.40;;;17.70;41.50;;;;;;5033973;28;20809;-70
2021/09/16 01:47:04;;;;;;;57.83;2.40;;;17.70;39.70;;;;;;5033480;28;20468;-70
2021/09/16 01:49:31;;;;;;;58.27;2.90;;;17.70;39.90;;;;;;5033803;28;20456;-71
2021/09/16 01:51:59;;;;;;;57.90;2.60;;;17.70;40.40;;;;;;5033767;28;20456;-71
2021/09/16 01:54:26;;;;;;;58.20;2.60;;;17.60;41.30;;;;;;5033599;28;20449;-71
2021/09/16 01:56:54;;;;;;;57.97;2.40;;;17.50;41.10;;;;;;5033365;28;20472;-71
2021/09/16 01:59:21;;;;;;;57.73;2.30;;;17.40;44.70;;;;;;5033592;28;20477;-71
2021/09/16 02:01:47;;;;;;;57.97;2.70;;;17.40;50.40;;;;;;5032708;28;20448;-71
2021/09/16 02:04:14;;;;;;;57.97;2.67;;;17.40;55.50;;;;;;5033611;28;20456;-71
2021/09/16 02:06:41;;;;;;;57.97;2.50;;;17.30;60.20;;;;;;5033098;28;20887;-71
2021/09/16 02:09:08;;;;;;;57.77;2.50;;;17.30;61.80;;;;;;5033462;28;20909;-71
2021/09/16 02:11:35;;;;;;;57.90;2.40;;;17.20;64.50;;;;;;5033917;28;20538;-71
2021/09/16 02:14:03;;;;;;;57.97;2.40;;;17.20;66.40;;;;;;5033413;28;20499;-71
2021/09/16 02:16:30;;;;;;;58.13;2.60;;;17.20;67.90;;;;;;5032708;28;20559;-71
2021/09/16 02:18:57;;;;;;;57.63;2.33;;;17.20;69.50;;;;;;5033166;28;20491;-71
2021/09/16 02:21:24;;;;;;;57.87;2.40;;;17.20;70.70;;;;;;5033106;28;20488;-71
2021/09/16 02:23:51;;;;;;;58.80;2.77;;;17.20;72.10;;;;;;5033020;28;20461;-71
2021/09/16 02:26:18;;;;;;;57.63;2.40;;;17.20;73.80;;;;;;5032640;28;20548;-71
2021/09/16 02:28:45;;;;;;;57.90;2.67;;;17.20;76.20;;;;;;5033012;28;20831;-71
2021/09/16 02:31:13;;;;;;;57.67;2.40;;;17.20;78.10;;;;;;5033012;28;20453;-71
2021/09/16 02:33:40;;;;;;;57.77;2.33;;;17.10;79.70;;;;;;5032875;28;20665;-71
2021/09/16 02:36:07;;;;;;;58.20;2.40;;;17.10;81.20;;;;;;5032421;28;20548;-71
2021/09/16 02:38:34;;;;;;;57.77;2.60;;;17.10;83.30;;;;;;5032762;28;20487;-71
2021/09/16 02:41:01;;;;;;;57.80;2.43;;;17.10;85.90;;;;;;5032912;28;20458;-71
2021/09/16 02:43:28;;;;;;;58.10;2.40;;;17.10;88.10;;;;;;5032802;28;20452;-71
2021/09/16 02:45:55;;;;;;;57.77;2.30;;;17.10;89.80;;;;;;5032301;28;21007;-71
2021/09/16 02:48:23;;;;;;;58.00;2.50;;;17.10;90.60;;;;;;5032639;28;20444;-72
2021/09/16 02:50:50;;;;;;;58.10;2.70;;;17.00;91.00;;;;;;5032505;28;20460;-71
2021/09/16 02:53:17;;;;;;;57.73;2.70;;;17.10;91.70;;;;;;5032717;28;20460;-71
2021/09/16 02:55:44;;;;;;;57.77;2.47;;;17.10;92.20;;;;;;5032428;28;20884;-71
2021/09/16 02:58:11;;;;;;;57.93;2.40;;;17.00;92.70;;;;;;5032257;28;20469;-71
2021/09/16 03:00:38;;;;;;;58.00;2.40;;;17.10;93.10;;;;;;5032457;28;20452;-71
2021/09/16 03:03:06;;;;;;;57.87;2.50;;;17.10;93.30;;;;;;5032224;28;21039;-71
2021/09/16 03:05:34;;;;;;;57.83;2.50;;;17.10;93.70;;;;;;5032316;28;20539;-71
2021/09/16 03:08:01;;;;;;;58.00;2.47;;;17.10;94.20;;;;;;5032067;28;21044;-71
2021/09/16 03:10:28;;;;;;;57.83;2.60;;;17.00;94.60;;;;;;5032332;28;20535;-71
2021/09/16 03:12:56;;;;;;;58.07;2.50;;;17.00;94.90;;;;;;5032043;28;20523;-70
2021/09/16 03:15:23;;;;;;;58.07;2.90;;;17.00;95.30;;;;;;5032582;28;20615;-70
2021/09/16 03:17:50;;;;;;;58.00;2.50;;;17.00;95.70;;;;;;5031811;28;20558;-70
2021/09/16 03:20:17;;;;;;;57.77;2.40;;;17.00;96.00;;;;;;5032176;28;20492;-70
2021/09/16 03:22:46;;;;;;;58.10;2.50;;;17.00;96.40;;;;;;5032226;28;20540;-70
2021/09/16 03:25:13;;;;;;;58.17;2.50;;;16.90;96.70;;;;;;5032053;28;20532;-70
2021/09/16 03:27:40;;;;;;;57.93;2.50;;;17.00;97.20;;;;;;5031489;28;20500;-70
2021/09/16 03:30:09;;;;;;;57.73;2.30;;;17.00;97.50;;;;;;5031795;28;20547;-70
2021/09/16 03:32:35;;;;;;;58.03;2.40;;;17.00;97.50;;;;;;5032110;28;20456;-70
2021/09/16 03:35:03;;;;;;;57.77;2.50;;;17.00;97.70;;;;;;5031909;28;20543;-70
2021/09/16 03:37:30;;;;;;;57.77;2.50;;;17.00;97.90;;;;;;5031485;28;20555;-70
2021/09/16 03:39:58;;;;;;;57.97;2.50;;;17.00;98.10;;;;;;5031865;28;20484;-70
2021/09/16 03:42:25;;;;;;;57.67;2.40;;;17.00;98.40;;;;;;5031739;28;20893;-70
2021/09/16 03:44:52;;;;;;;58.07;2.40;;;17.00;98.30;;;;;;5031594;28;20455;-70
2021/09/16 03:47:19;;;;;;;57.70;2.33;;;16.90;98.80;;;;;;5031491;28;20915;-70
2021/09/16 03:49:45;;;;;;;57.87;2.40;;;17.00;98.70;;;;;;5031653;28;20976;-70
2021/09/16 03:52:12;;;;;;;58.07;3.43;;;17.00;98.70;;;;;;5031609;28;20535;-70
2021/09/16 03:54:39;;;;;;;58.20;2.80;;;17.00;98.70;;;;;;5031642;28;20481;-70
2021/09/16 03:57:08;;;;;;;58.00;2.40;;;17.00;98.90;;;;;;5031232;28;20484;-70
2021/09/16 03:59:35;;;;;;;57.87;2.50;;;17.00;98.90;;;;;;5031453;28;20563;-71
2021/09/16 04:02:01;;;;;;;57.83;2.40;;;17.00;99.00;;;;;;5031804;28;20820;-70
2021/09/16 04:04:28;;;;;;;57.67;2.40;;;17.10;99.20;;;;;;5031529;28;21028;-70
2021/09/16 04:06:55;;;;;;;57.87;2.40;;;17.10;99.20;;;;;;5031240;28;20465;-70
2021/09/16 04:09:22;;;;;;;57.90;2.30;;;17.10;99.30;;;;;;5031908;28;20456;-70
2021/09/16 04:11:49;;;;;;;57.50;2.60;;;17.10;99.30;;;;;;5031389;28;20484;-70
2021/09/16 04:14:18;;;;;;;57.83;2.40;;;17.10;99.40;;;;;;5031458;28;20956;-70
2021/09/16 04:16:44;;;;;;;57.93;2.50;;;17.10;99.50;;;;;;5031372;28;20893;-70
2021/09/16 04:19:11;;;;;;;57.93;2.47;;;17.10;99.50;;;;;;5031283;28;21021;-70
2021/09/16 04:21:38;;;;;;;58.27;2.77;;;17.00;99.70;;;;;;5031334;28;20546;-70
2021/09/16 04:24:06;;;;;;;58.30;3.10;;;17.00;99.70;;;;;;5032861;28;20538;-70
2021/09/16 04:26:33;;;;;;;57.50;2.40;;;17.00;99.90;;;;;;5034689;28;20579;-70
2021/09/16 04:29:01;;;;;;;57.67;2.60;;;17.10;99.90;;;;;;5035275;28;20460;-70
2021/09/16 04:31:30;;;;;;;58.07;2.87;;;17.10;99.90;;;;;;5035382;28;20463;-70
2021/09/16 04:33:56;;;;;;;58.03;2.70;;;17.00;99.90;;;;;;5035123;28;20487;-71
2021/09/16 04:36:23;;;;;;;58.03;2.40;;;17.00;99.90;;;;;;5034808;28;20551;-71
2021/09/16 04:38:50;;;;;;;57.57;2.40;;;17.00;99.90;;;;;;5034920;28;20490;-71
2021/09/16 04:41:17;;;;;;;57.87;2.40;;;17.00;99.90;;;;;;5034814;28;20544;-71
2021/09/16 04:43:44;;;;;;;57.67;2.37;;;17.00;99.90;;;;;;5034832;28;20535;-71
2021/09/16 04:46:11;;;;;;;57.87;2.50;;;17.00;99.90;;;;;;5034614;28;20467;-71
2021/09/16 04:48:39;;;;;;;57.63;2.23;;;17.00;99.90;;;;;;5034972;28;20801;-71
2021/09/16 04:51:06;;;;;;;57.97;2.53;;;17.00;99.90;;;;;;5034826;28;20492;-71
2021/09/16 04:53:33;;;;;;;57.73;2.60;;;17.00;99.90;;;;;;5034736;28;20458;-71
2021/09/16 04:56:00;;;;;;;57.73;2.60;;;17.00;99.90;;;;;;5034505;28;20481;-71
2021/09/16 04:58:27;;;;;;;57.67;2.50;;;17.00;99.90;;;;;;5034786;28;20510;-71
2021/09/16 05:00:54;;;;;;;58.00;2.50;;;17.00;99.90;;;;;;5034715;28;20743;-71
2021/09/16 05:03:21;;;;;;;57.90;2.70;;;17.00;99.90;;;;;;5034632;28;20479;-71
2021/09/16 05:05:49;;;;;;;57.87;2.97;;;17.00;99.90;;;;;;5034323;28;20456;-71
2021/09/16 05:08:16;;;;;;;57.97;2.87;;;17.00;99.90;;;;;;5034315;28;20551;-71
2021/09/16 05:10:43;;;;;;;57.67;2.30;;;17.00;99.90;;;;;;5034673;28;20532;-71
2021/09/16 05:13:10;;;;;;;57.87;2.40;;;17.00;99.90;;;;;;5034431;28;20983;-71
2021/09/16 05:15:37;;;;;;;57.53;2.37;;;17.00;99.90;;;;;;5034245;28;20546;-71
2021/09/16 05:18:04;;;;;;;59.00;3.00;;;17.00;99.90;;;;;;5034338;28;20566;-71
2021/09/16 05:20:31;;;;;;;57.67;2.50;;;17.10;99.90;;;;;;5034209;28;20486;-71
2021/09/16 05:22:59;;;;;;;57.57;2.40;;;17.10;99.90;;;;;;5034213;28;20452;-71
2021/09/16 05:25:26;;;;;;;57.77;2.60;;;17.20;99.90;;;;;;5034026;28;20491;-71
2021/09/16 05:27:53;;;;;;;57.83;2.60;;;17.10;99.90;;;;;;5033993;28;21064;-71
2021/09/16 05:30:20;;;;;;;58.73;3.67;;;17.20;99.90;;;;;;5034080;28;20543;-71
2021/09/16 05:32:47;;;;;;;57.80;2.40;;;17.20;99.90;;;;;;5034119;28;20453;-71
2021/09/16 05:35:14;;;;;;;57.97;2.53;;;17.20;99.90;;;;;;5033856;28;20459;-71
2021/09/16 05:37:41;;;;;;;58.10;2.60;;;17.30;99.90;;;;;;5033593;28;20555;-71
2021/09/16 05:40:11;;;;;;;57.67;2.57;;;17.30;99.90;;;;;;5033796;28;21027;-71
2021/09/16 05:42:38;;;;;;;57.43;2.40;;;17.20;99.90;;;;;;5034281;28;20501;-71
2021/09/16 05:45:05;;;;;;;58.00;2.40;;;17.30;99.90;;;;;;5034028;28;20448;-71
2021/09/16 05:47:32;;;;;;;57.67;2.50;;;17.30;99.90;;;;;;5033508;28;20463;-71
2021/09/16 05:49:59;;;;;;;57.87;2.80;;;17.30;99.90;;;;;;5033736;28;20451;-71
2021/09/16 05:52:26;;;;;;;57.77;2.67;;;17.30;99.90;;;;;;5033660;28;20491;-71
2021/09/16 05:54:53;;;;;;;57.83;2.70;;;17.30;99.90;;;;;;5033633;28;20495;-71
2021/09/16 05:57:21;;;;;;;57.47;2.60;;;17.30;99.90;;;;;;5033326;28;20511;-71
2021/09/16 05:59:48;;;;;;;58.20;2.90;;;17.20;99.90;;;;;;5033582;28;20492;-71
2021/09/16 06:02:15;;;;;;;57.97;2.70;;;17.20;99.90;;;;;;5033458;28;20453;-71
2021/09/16 06:04:42;;;;;;;57.83;2.60;;;17.20;99.90;;;;;;5033467;28;20445;-71
2021/09/16 06:07:09;;;;;;;57.73;2.50;;;17.30;99.90;;;;;;5033234;28;20515;-71
2021/09/16 06:09:35;;;;;;;57.37;2.70;;;17.30;99.90;;;;;;5033624;28;20459;-71
2021/09/16 06:12:04;;;;;;;57.83;2.50;;;17.30;99.90;;;;;;5033370;28;20540;-71
2021/09/16 06:14:32;;;;;;;57.87;2.67;;;17.30;99.90;;;;;;5033297;28;20460;-71
2021/09/16 06:16:59;;;;;;;57.57;2.40;;;17.40;99.90;;;;;;5032839;28;20472;-71
2021/09/16 06:19:26;;;;;;;57.80;2.47;;;17.40;99.90;;;;;;5033552;28;20571;-71
2021/09/16 06:21:53;;;;;;;57.80;2.40;;;17.40;99.90;;;;;;5033369;28;20540;-71
2021/09/16 06:24:20;;;;;;;57.47;2.30;;;17.40;99.90;;;;;;5033463;28;20536;-71
2021/09/16 06:26:47;;;;;;;57.83;2.50;;;17.50;99.90;;;;;;5032659;28;20511;-71
2021/09/16 06:29:14;;;;;;;57.67;2.60;;;17.50;99.90;;;;;;5032978;28;20888;-71
2021/09/16 06:31:42;;;;;;;58.30;3.00;;;17.50;99.90;;;;;;5033137;28;20500;-71
2021/09/16 06:34:09;;;;;;;57.80;2.40;;;17.50;99.90;;;;;;5033189;28;20889;-71
2021/09/16 06:36:36;;;;;;;57.87;2.83;;;17.50;99.90;;;;;;5032638;28;20475;-71
2021/09/16 06:39:03;;;;;;;57.93;2.47;;;17.60;99.90;;;;;;5032841;28;20536;-71
2021/09/16 06:41:30;;;;;;;57.27;2.43;;;17.60;99.90;;;;;;5032711;28;20877;-71
2021/09/16 06:43:56;;;;;;;57.90;2.60;;;17.60;99.90;;;;;;5032790;28;20483;-71
2021/09/16 06:46:23;;;;;;;57.77;2.50;;;17.70;99.90;;;;;;5031963;28;20551;-71
2021/09/16 06:48:51;;;;;;;60.40;3.70;;;17.70;99.90;;;;;;5032639;28;20441;-71
2021/09/16 06:51:18;;;;;;;57.73;2.60;;;17.70;99.90;;;;;;5032619;28;20535;-71
2021/09/16 06:53:45;;;;;;;57.67;2.40;;;17.80;99.90;;;;;;5032459;28;20441;-71
2021/09/16 06:56:12;;;;;;;57.27;2.30;;;17.80;99.90;;;;;;5032096;28;20831;-71
2021/09/16 06:58:39;;;;;;;57.23;2.20;;;17.80;99.90;;;;;;5032311;28;20540;-71
2021/09/16 07:01:06;;;;;;;58.03;2.57;;;17.80;99.90;;;;;;5032546;28;20492;-71
2021/09/16 07:03:33;;;;;;;57.70;2.47;;;17.80;99.90;;;;;;5032484;28;20476;-71
2021/09/16 07:06:01;;;;;;;58.50;3.13;;;17.80;99.90;;;;;;5031743;28;20492;-71
2021/09/16 07:08:28;;;;;;;57.90;2.40;;;17.80;99.90;;;;;;5030979;28;20451;-71
2021/09/16 07:10:54;;;;;;;57.40;2.37;;;17.80;99.90;;;;;;5032279;28;20548;-71
2021/09/16 07:13:21;;;;;;;57.47;2.80;;;17.80;99.50;;;;;;5032202;28;20449;-71
2021/09/16 07:15:48;;;;;;;57.83;2.30;;;17.80;98.50;;;;;;5032030;28;20491;-71
2021/09/16 07:18:15;;;;;;;58.00;2.80;;;17.80;97.90;;;;;;5032243;28;20540;-71
2021/09/16 07:20:42;;;;;;;57.67;2.60;;;17.80;97.70;;;;;;5032098;28;20519;-71
2021/09/16 07:23:10;;;;;;;57.87;2.50;;;17.90;97.90;;;;;;5031966;28;20472;-71
2021/09/16 07:25:37;;;;;;;57.57;2.40;;;17.90;97.70;;;;;;5031700;28;20455;-71
2021/09/16 07:28:04;;;;;;;58.10;2.60;;;17.90;97.60;;;;;;5032098;28;20472;-71
2021/09/16 07:30:31;;;;;;;57.67;2.50;;;17.90;97.30;;;;;;5031895;28;20976;-71
2021/09/16 07:32:57;;;;;;;57.47;2.30;;;18.00;97.60;;;;;;5031988;28;20451;-71
2021/09/16 07:35:24;;;;;;;57.57;2.40;;;18.00;97.30;;;;;;5031843;28;20451;-71
2021/09/16 07:37:51;;;;;;;57.57;2.37;;;17.90;97.20;;;;;;5031672;28;20999;-71
2021/09/16 07:40:20;;;;;;;58.37;2.70;;;18.00;97.00;;;;;;5031692;28;21144;-71
2021/09/16 07:42:47;;;;;;;57.80;2.60;;;18.00;97.20;;;;;;5031804;28;20829;-71
2021/09/16 07:45:14;;;;;;;57.93;2.57;;;18.00;96.90;;;;;;5031758;28;20544;-71
2021/09/16 07:47:40;;;;;;;57.70;2.47;;;18.10;97.10;;;;;;5031347;28;21036;-71
2021/09/16 07:50:08;;;;;;;57.80;2.43;;;18.10;96.90;;;;;;5031774;28;20452;-71
2021/09/16 07:52:35;;;;;;;57.80;2.30;;;18.10;96.70;;;;;;5031667;28;20964;-71
2021/09/16 07:55:02;;;;;;;57.40;2.43;;;18.10;96.40;;;;;;5031541;28;20555;-71
2021/09/16 07:57:30;;;;;;;57.70;2.40;;;18.20;96.40;;;;;;5031428;28;20555;-71
2021/09/16 07:59:57;;;;;;;57.80;2.40;;;18.20;96.20;;;;;;5034543;28;20576;-71
2021/09/16 08:02:23;;;;;;;57.77;2.17;;;18.20;95.60;;;;;;5035865;28;20949;-71
2021/09/16 08:04:50;;;;;;;57.93;2.40;;;18.20;94.90;;;;;;5035844;28;20536;-71
2021/09/16 08:07:17;;;;;;;57.83;2.40;;;18.20;94.00;;;;;;5035229;28;20556;-71
2021/09/16 08:09:44;;;;;;;57.63;2.30;;;18.20;93.10;;;;;;5035924;28;20543;-71
2021/09/16 08:12:11;;;;;;;58.07;2.90;;;18.30;92.60;;;;;;5035892;28;20552;-71
2021/09/16 08:14:39;;;;;;;57.93;2.60;;;18.30;91.90;;;;;;5035572;28;20528;-71
2021/09/16 08:17:06;;;;;;;57.90;2.80;;;18.20;91.30;;;;;;5035144;28;20547;-71
2021/09/16 08:19:39;;;;;;;57.80;2.50;;;18.10;91.30;;;;;;5036147;28;20450;-71
2021/09/16 08:22:06;;;;;;;58.27;2.80;;;18.10;90.70;;;;;;5035579;28;20495;-71
2021/09/16 08:24:32;;;;;;;58.07;3.10;;;18.00;86.80;;;;;;5035384;28;20535;-70
2021/09/16 08:26:59;;;;;;;58.40;3.33;;;17.90;85.00;;;;;;5035276;28;20846;-70
2021/09/16 08:29:26;;;;;;;58.70;3.53;;;17.90;85.30;;;;;;5035499;28;21039;-70
2021/09/16 08:31:54;;;;;;;57.53;2.40;;;17.80;86.10;;;;;;5035291;28;20528;-70
2021/09/16 08:34:25;;;;;;;58.07;3.03;;;17.80;86.90;;;;;;5035094;28;20958;-70
2021/09/16 08:36:52;;;;;;;57.70;2.50;;;17.80;88.50;;;;;;5034961;28;20468;-69
2021/09/16 08:39:19;;;;;;;57.10;2.53;;;17.90;90.10;;;;;;5035257;28;20441;-70
2021/09/16 08:41:46;;;;;;;58.10;2.70;;;17.90;90.70;;;;;;5035205;28;20489;-69
2021/09/16 08:44:13;;;;;;;57.90;2.70;;;17.90;90.80;;;;;;5034978;28;20460;-69
2021/09/16 08:46:39;;;;;;;58.50;3.10;;;17.90;90.30;;;;;;5034696;28;20479;-69
2021/09/16 08:49:08;;;;;;;57.77;2.60;;;17.90;89.40;;;;;;5035413;28;20566;-69
2021/09/16 08:51:35;;;;;;;58.20;2.50;;;18.00;87.70;;;;;;5035282;28;20480;-69
2021/09/16 08:54:03;;;;;;;57.77;2.67;;;18.00;86.50;;;;;;5035135;28;20441;-69
2021/09/16 08:56:30;;;;;;;57.77;2.70;;;18.10;80.80;;;;;;5034403;28;20518;-69
2021/09/16 08:59:03;;;;;;;58.43;3.03;;;18.00;76.70;;;;;;5035041;28;20543;-69
2021/09/16 09:01:30;;;;;;;57.97;2.50;;;18.00;75.40;;;;;;5034835;28;20564;-69
2021/09/16 09:03:57;;;;;;;57.87;2.47;;;18.10;76.50;;;;;;5035133;28;20548;-69
2021/09/16 09:06:32;;;;;;;57.40;2.70;;;18.10;80.80;;;;;;5034438;28;20551;-68
2021/09/16 09:09:15;;;;;;;58.10;2.50;;;18.30;81.30;;;;;;5034760;28;20998;-69
2021/09/16 09:11:53;;;;;;;58.10;2.70;;;18.30;73.80;;;;;;5035048;28;20530;-68
2021/09/16 09:14:21;;;;;;;58.10;2.70;;;18.30;71.20;;;;;;5034679;28;20532;-68
2021/09/16 09:16:48;;;;;;;58.30;2.97;;;18.40;71.60;;;;;;5034023;28;21089;-69
2021/09/16 09:19:16;;;;;;;57.77;2.70;;;18.50;70.60;;;;;;5034475;28;20537;-68
2021/09/16 09:21:45;;;;;;;58.27;3.07;;;18.60;64.10;;;;;;5034326;28;20906;-68
2021/09/16 09:24:13;;;;;;;57.87;2.60;;;18.60;64.10;;;;;;5034356;28;20460;-68
2021/09/16 09:26:41;;;;;;;58.00;2.20;;;18.60;57.20;;;;;;5034328;28;20560;-68
2021/09/16 09:29:16;;;;;;;57.67;2.60;;;18.60;46.70;;;;;;5034310;28;20552;-68
2021/09/16 09:31:53;;;;;;;58.00;2.40;;;18.40;32.60;;;;;;5034282;28;20445;-69
2021/09/16 09:34:25;;;;;;;57.57;2.20;;;18.30;33.30;;;;;;5034329;28;20476;-68
2021/09/16 09:36:54;;;;;;;59.20;3.40;;;18.10;30.00;;;;;;5033642;28;20552;-68
2021/09/16 09:39:27;;;;;;;57.97;2.50;;;18.00;30.80;;;;;;5034226;28;20532;-67
2021/09/16 09:41:54;;;;;;;58.10;2.70;;;17.80;36.80;;;;;;5033894;28;20484;-68
2021/09/16 09:44:23;;;;;;;58.10;2.50;;;17.70;37.20;;;;;;5033860;28;20451;-68
2021/09/16 09:46:52;;;;;;;58.00;2.60;;;17.60;35.20;;;;;;5033711;28;20523;-68
2021/09/16 09:49:22;;;;;;;58.07;2.90;;;17.50;40.70;;;;;;5033776;28;20532;-68
2021/09/16 09:51:52;;;;;;;57.97;3.27;;;17.40;47.50;;;;;;5034039;28;20441;-68
2021/09/16 09:54:28;;;;;;;58.47;3.90;;;17.40;54.00;;;;;;5034106;28;20959;-67
2021/09/16 09:57:04;;;;;;;58.07;2.60;;;17.30;59.60;;;;;;5033258;28;20504;-68
2021/09/16 10:00:07;;;;;;;59.37;4.03;;;17.30;63.00;;;;;;5033746;28;20445;-68
2021/09/16 10:02:43;;;;;;;57.50;2.50;;;17.30;65.10;;;;;;4972845;28;20458;-68
2021/09/16 10:05:25;;;;;;;58.00;2.40;;;17.30;67.20;;;;;;4972581;28;20574;-68
2021/09/16 10:07:52;;;;;;;58.03;2.80;;;17.30;69.50;;;;;;4972332;28;20475;-68
2021/09/16 10:10:22;;;;;;;58.27;2.50;;;17.20;69.00;;;;;;4972618;28;20820;-68
2021/09/16 10:12:51;;;;;;;57.83;2.50;;;17.30;68.40;;;;;;4972499;28;20565;-68
2021/09/16 10:15:20;;;;;;;58.27;2.57;;;17.20;64.70;;;;;;4972382;28;20447;-68
2021/09/16 10:17:48;;;;;;;58.33;2.93;;;17.10;62.70;;;;;;4972021;28;20469;-68
2021/09/16 10:20:17;;;;;;;57.97;2.80;;;17.00;63.30;;;;;;4972195;28;20830;-68
2021/09/16 10:22:47;;;;;;;58.27;2.80;;;17.00;63.30;;;;;;4971306;28;20462;-68
2021/09/16 10:25:16;;;;;;;59.37;4.70;;;16.90;62.50;;;;;;4972175;28;21014;-68
2021/09/16 10:27:45;;;;;;;58.23;3.00;;;16.90;62.50;;;;;;4971783;28;20482;-69
2021/09/16 10:30:43;;;;;;;57.93;2.70;;;16.80;63.80;;;;;;4972002;28;20463;-68
2021/09/16 10:33:13;;;;;;;58.50;3.10;;;16.80;64.50;;;;;;4995214;28;20455;-68
2021/09/16 10:35:42;;;;;;;58.10;2.70;;;16.80;65.20;;;;;;5033068;28;20796;-69
2021/09/16 10:38:28;;;;;;;58.07;2.70;;;16.70;66.70;;;;;;5032957;28;20464;-68
2021/09/16 10:41:25;;;;;;;58.87;3.20;;;16.80;69.70;;;;;;5033124;28;20498;-68
2021/09/16 10:44:12;;;;;;;58.10;3.03;;;16.90;71.90;;;;;;5032865;28;20548;-69
2021/09/16 10:46:40;;;;;;;58.27;2.67;;;16.90;72.20;;;;;;5022127;28;20592;-68
2021/09/16 10:49:30;;;;;;;57.87;2.50;;;17.00;72.00;;;;;;5032846;28;20462;-68
2021/09/16 10:51:59;;;;;;;58.80;2.63;;;17.00;71.80;;;;;;5032735;28;20440;-69
2021/09/16 10:54:38;;;;;;;57.97;2.50;;;17.00;71.30;;;;;;5032541;28;21024;-68
2021/09/16 10:57:06;;;;;;;57.87;2.57;;;17.10;70.40;;;;;;5032209;28;20468;-68
2021/09/16 11:00:10;;;;;;;58.30;2.80;;;17.10;68.00;;;;;;5032582;28;20467;-68
2021/09/16 11:03:12;;;;;;;58.17;3.07;;;17.10;67.80;;;;;;5032467;28;20999;-69
2021/09/16 11:05:58;;;;;;;58.47;2.80;;;17.10;66.00;;;;;;5031722;28;20463;-69
2021/09/16 11:08:59;;;;;;;57.87;2.70;;;17.10;65.40;;;;;;5032495;28;20475;-68
2021/09/16 11:11:46;;;;;;;57.77;2.40;;;17.10;63.90;;;;;;5032594;28;20456;-68
2021/09/16 11:14:29;;;;;;;57.97;2.87;;;17.10;61.80;;;;;;5032776;28;20447;-68
2021/09/16 11:16:59;;;;;;;57.57;2.40;;;17.10;61.20;;;;;;5033645;28;20468;-69
2021/09/16 11:19:26;;;;;;;58.10;2.60;;;17.00;60.00;;;;;;5033927;28;20464;-69
2021/09/16 11:22:05;;;;;;;58.80;3.70;;;17.00;58.20;;;;;;5033022;28;20522;-69
2021/09/16 11:24:35;;;;;;;59.00;3.00;;;17.00;54.80;;;;;;5033705;28;20448;-69
2021/09/16 11:27:01;;;;;;;58.07;2.60;;;16.90;53.70;;;;;;5031537;28;20464;-69
2021/09/16 11:29:39;;;;;;;57.80;2.67;;;16.90;53.70;;;;;;5033154;28;20467;-69
2021/09/16 11:32:08;;;;;;;57.97;2.50;;;16.90;54.30;;;;;;5033640;28;20530;-69
2021/09/16 11:34:35;;;;;;;58.50;2.83;;;16.90;52.80;;;;;;5032636;28;20459;-68
2021/09/16 11:37:14;;;;;;;58.23;3.00;;;16.90;51.60;;;;;;5031491;28;20469;-68
2021/09/16 11:39:41;;;;;;;58.40;3.27;;;16.90;52.90;;;;;;5032009;28;20648;-69
2021/09/16 11:42:16;;;;;;;58.30;2.90;;;16.90;52.10;;;;;;5032127;28;20618;-68
2021/09/16 11:45:14;;;;;;;58.50;3.10;;;16.90;51.50;;;;;;5031839;28;20932;-69
2021/09/16 11:47:46;;;;;;;58.63;3.23;;;16.90;53.20;;;;;;5031314;28;21024;-69
2021/09/16 11:50:23;;;;;;;58.10;2.83;;;16.90;56.50;;;;;;5032230;28;20524;-69
2021/09/16 11:52:55;;;;;;;58.37;2.80;;;17.00;57.80;;;;;;5032035;28;20455;-71
2021/09/16 11:55:22;;;;;;;58.70;3.07;;;17.10;60.20;;;;;;5031900;28;20530;-69
2021/09/16 11:58:11;;;;;;;58.20;2.70;;;17.30;61.50;;;;;;5031609;28;20471;-70
2021/09/16 12:00:40;;;;;;;58.37;2.67;;;17.50;61.10;;;;;;5031418;28;20451;-69
2021/09/16 12:03:11;;;;;;;58.30;3.43;;;17.60;61.90;;;;;;5031570;28;21007;-68
2021/09/16 12:05:47;;;;;;;58.70;3.37;;;17.80;61.70;;;;;;5031178;28;20448;-69
2021/09/16 12:08:19;;;;;;;58.40;2.70;;;17.80;41.00;;;;;;5031621;28;20582;-69
2021/09/16 12:10:49;;;;;;;57.50;2.33;;;17.80;26.90;;;;;;5031624;28;20539;-69
2021/09/16 12:13:19;;;;;;;57.90;2.90;;;17.90;25.40;;;;;;5031579;28;21017;-69
2021/09/16 12:15:48;;;;;;;58.60;2.83;;;17.90;24.60;;;;;;5031507;28;20450;-69
2021/09/16 12:18:17;;;;;;;57.60;2.60;;;17.90;28.90;;;;;;5031629;28;20840;-69
2021/09/16 12:20:46;;;;;;;57.83;2.50;;;18.10;24.60;;;;;;5031517;28;20449;-69
2021/09/16 12:23:15;;;;;;;57.70;2.70;;;18.20;13.50;;;;;;5031441;28;20485;-69
2021/09/16 12:25:57;;;;;;;58.40;3.30;;;18.20;6.50;;;;;;5031024;28;20452;-69
2021/09/16 12:28:24;;;;;;;58.33;3.20;;;18.20;2.10;;;;;;5031507;28;20536;-69
2021/09/16 12:30:52;;;;;;;58.20;2.70;;;18.30;1.00;;;;;;5031447;28;20446;-69
2021/09/16 12:33:35;;;;;;;58.07;2.40;;;18.30;1.00;;;;;;5031398;28;20899;-70
2021/09/16 12:36:22;;;;;;;58.30;2.97;;;18.20;1.00;;;;;;5030861;28;20707;-69
2021/09/16 12:38:51;;;;;;;58.50;3.20;;;18.30;1.00;;;;;;5031543;28;20451;-70
2021/09/16 12:41:38;;;;;;;58.77;3.30;;;18.30;1.00;;;;;;5031302;28;20580;-69
2021/09/16 12:44:15;;;;;;;57.47;2.40;;;18.50;1.00;;;;;;5031302;28;20444;-69
2021/09/16 12:46:47;;;;;;;58.37;3.80;;;18.60;1.00;;;;;;5034627;28;20511;-69
2021/09/16 12:49:30;;;;;;;58.40;4.00;;;18.70;1.00;;;;;;5035212;28;20456;-69